createdAt,value
2022-12-06T00:01:39.062Z,25.67
2022-12-06T00:04:11.684Z,23.83
2022-12-06T00:06:44.354Z,25.60
2022-12-06T00:09:29.379Z,24.10
2022-12-06T00:11:58.140Z,24.90
2022-12-06T00:14:27.187Z,25.00
2022-12-06T00:16:54.755Z,22.47
2022-12-06T00:19:24.577Z,23.23
2022-12-06T00:21:52.443Z,22.40
2022-12-06T00:24:22.698Z,21.57
2022-12-06T00:26:51.593Z,23.00
2022-12-06T00:29:23.107Z,26.57
2022-12-06T00:31:51.328Z,28.63
2022-12-06T00:34:19.078Z,31.73
2022-12-06T00:36:46.621Z,33.13
2022-12-06T00:39:17.701Z,27.13
2022-12-06T00:41:45.507Z,25.97
2022-12-06T00:44:13.345Z,24.10
2022-12-06T00:46:41.445Z,23.23
2022-12-06T00:49:10.105Z,23.30
2022-12-06T00:51:38.786Z,23.03
2022-12-06T00:54:08.393Z,24.87
2022-12-06T00:56:37.361Z,23.30
2022-12-06T00:59:06.628Z,21.77
2022-12-06T01:01:36.345Z,23.37
2022-12-06T01:04:06.978Z,22.87
2022-12-06T01:06:37.202Z,21.93
2022-12-06T01:09:09.221Z,20.77
2022-12-06T01:11:39.845Z,21.00
2022-12-06T01:14:07.461Z,20.60
2022-12-06T01:16:35.362Z,20.43
2022-12-06T01:19:05.749Z,21.33
2022-12-06T01:21:33.803Z,20.20
2022-12-06T01:24:01.354Z,20.50
2022-12-06T01:26:35.083Z,21.10
2022-12-06T01:29:04.153Z,21.97
2022-12-06T01:31:38.595Z,22.60
2022-12-06T01:34:09.987Z,21.00
2022-12-06T01:36:37.466Z,20.30
2022-12-06T01:39:08.157Z,21.27
2022-12-06T01:41:35.669Z,22.00
2022-12-06T01:44:04.578Z,20.47
2022-12-06T01:46:45.217Z,21.70
2022-12-06T01:49:12.558Z,21.10
2022-12-06T01:51:51.837Z,19.87
2022-12-06T01:54:21.510Z,19.47
2022-12-06T01:56:50.813Z,20.83
2022-12-06T01:59:19.134Z,20.47
2022-12-06T02:01:47.753Z,22.27
2022-12-06T02:04:17.404Z,21.60
2022-12-06T02:06:46.683Z,20.73
2022-12-06T02:09:16.364Z,22.43
2022-12-06T02:11:47.514Z,22.77
2022-12-06T02:14:21.715Z,22.57
2022-12-06T02:16:55.397Z,23.53
2022-12-06T02:19:58.507Z,24.33
2022-12-06T02:23:17.920Z,26.40
2022-12-06T02:26:11.712Z,24.83
2022-12-06T02:29:03.266Z,24.50
2022-12-06T02:31:59.499Z,25.23
2022-12-06T02:35:09.718Z,23.67
2022-12-06T02:38:11.552Z,22.70
2022-12-06T02:40:50.741Z,23.27
2022-12-06T02:43:35.875Z,22.20
2022-12-06T02:46:05.628Z,21.20
2022-12-06T02:48:34.623Z,22.80
2022-12-06T02:51:08.428Z,21.30
2022-12-06T02:53:40.918Z,23.03
2022-12-06T02:56:09.300Z,22.17
2022-12-06T02:58:38.210Z,21.63
2022-12-06T03:01:13.002Z,22.43
2022-12-06T03:04:01.364Z,22.37
2022-12-06T03:07:06.729Z,22.23
2022-12-06T03:10:18.842Z,22.83
2022-12-06T03:13:27.792Z,22.73
2022-12-06T03:19:00.532Z,19.30
2022-12-06T03:22:08.608Z,19.57
2022-12-06T03:24:40.391Z,19.77
2022-12-06T03:27:14.538Z,19.97
2022-12-06T03:29:50.503Z,23.83
2022-12-06T03:32:21.292Z,25.17
2022-12-06T03:34:53.647Z,22.40
2022-12-06T03:37:27.860Z,20.07
2022-12-06T03:40:19.440Z,20.97
2022-12-06T03:42:48.584Z,21.87
2022-12-06T03:45:16.821Z,20.50
2022-12-06T03:48:26.821Z,19.40
2022-12-06T03:51:06.752Z,19.30
2022-12-06T03:53:34.540Z,19.43
2022-12-06T03:56:02.022Z,18.80
2022-12-06T03:58:29.660Z,20.87
2022-12-06T04:01:04.777Z,20.10
2022-12-06T04:03:32.516Z,18.77
2022-12-06T04:06:03.870Z,19.40
2022-12-06T04:08:31.690Z,18.47
2022-12-06T04:10:59.287Z,16.63
2022-12-06T04:13:27.537Z,16.50
2022-12-06T04:16:03.340Z,15.67
2022-12-06T04:18:31.018Z,16.20
2022-12-06T04:21:17.869Z,17.13
2022-12-06T04:23:48.823Z,16.40
2022-12-06T04:26:23.016Z,16.33
2022-12-06T04:29:12.440Z,17.27
2022-12-06T04:31:59.994Z,17.50
2022-12-06T04:34:46.037Z,17.53
2022-12-06T04:37:32.480Z,19.10
2022-12-06T04:40:00.167Z,18.97
2022-12-06T04:42:46.556Z,18.00
2022-12-06T04:45:13.974Z,18.47
2022-12-06T04:47:41.479Z,22.53
2022-12-06T04:50:09.316Z,18.57
2022-12-06T04:52:36.895Z,18.20
2022-12-06T04:55:05.896Z,21.87
2022-12-06T04:57:33.684Z,21.70
2022-12-06T05:00:01.473Z,21.23
2022-12-06T05:02:29.292Z,20.63
2022-12-06T05:04:56.690Z,20.27
2022-12-06T05:07:24.192Z,18.63
2022-12-06T05:09:51.653Z,20.40
2022-12-06T05:12:19.105Z,21.30
2022-12-06T05:14:46.694Z,19.53
2022-12-06T05:17:14.147Z,21.07
2022-12-06T05:19:41.647Z,25.13
2022-12-06T05:22:09.105Z,27.37
2022-12-06T05:24:37.003Z,23.13
2022-12-06T05:27:04.483Z,24.20
2022-12-06T05:29:32.098Z,24.13
2022-12-06T05:31:59.791Z,22.03
2022-12-06T05:34:27.363Z,21.43
2022-12-06T05:36:54.914Z,23.90
2022-12-06T05:39:22.480Z,23.03
2022-12-06T05:41:49.928Z,24.70
2022-12-06T05:44:17.490Z,24.10
2022-12-06T05:46:45.037Z,26.50
2022-12-06T05:49:12.554Z,25.47
2022-12-06T05:51:40.188Z,22.23
2022-12-06T05:54:07.739Z,21.47
2022-12-06T05:56:35.270Z,22.33
2022-12-06T05:59:03.443Z,22.17
2022-12-06T06:01:33.522Z,22.30
2022-12-06T06:04:01.798Z,22.37
2022-12-06T06:06:29.889Z,22.30
2022-12-06T06:08:57.541Z,23.70
2022-12-06T06:11:25.085Z,23.40
2022-12-06T06:13:54.496Z,21.60
2022-12-06T06:16:22.713Z,23.73
2022-12-06T06:18:50.341Z,21.70
2022-12-06T06:21:17.851Z,22.47
2022-12-06T06:23:45.377Z,24.37
2022-12-06T06:26:13.406Z,23.60
2022-12-06T06:28:40.884Z,23.33
2022-12-06T06:31:09.178Z,23.87
2022-12-06T06:33:36.670Z,23.90
2022-12-06T06:36:04.504Z,24.00
2022-12-06T06:38:32.028Z,23.57
2022-12-06T06:41:03.377Z,22.93
2022-12-06T06:43:31.516Z,23.93
2022-12-06T06:46:04.167Z,22.93
2022-12-06T06:48:38.541Z,23.40
2022-12-06T06:51:12.832Z,23.07
2022-12-06T06:53:40.694Z,23.37
2022-12-06T06:56:08.715Z,21.43
2022-12-06T06:58:36.343Z,22.20
2022-12-06T07:01:06.014Z,22.30
2022-12-06T07:03:34.696Z,22.90
2022-12-06T07:06:09.110Z,22.70
2022-12-06T07:08:37.353Z,22.63
2022-12-06T07:11:05.227Z,23.90
2022-12-06T07:13:33.216Z,25.90
2022-12-06T07:16:06.019Z,28.50
2022-12-06T07:18:33.999Z,26.00
2022-12-06T07:21:06.623Z,26.10
2022-12-06T07:23:35.935Z,25.77
2022-12-06T07:26:16.920Z,24.93
2022-12-06T07:28:47.298Z,21.80
2022-12-06T07:31:22.386Z,21.20
2022-12-06T07:33:54.360Z,20.03
2022-12-06T07:36:23.266Z,20.60
2022-12-06T07:38:53.373Z,21.87
2022-12-06T07:41:42.645Z,23.33
2022-12-06T07:44:37.833Z,23.17
2022-12-06T07:47:05.359Z,18.17
2022-12-06T07:49:32.874Z,18.87
2022-12-06T07:52:01.446Z,19.13
2022-12-06T07:54:30.305Z,19.60
2022-12-06T07:56:57.896Z,19.67
2022-12-06T07:59:26.134Z,19.63
2022-12-06T08:01:54.627Z,21.67
2022-12-06T08:04:22.653Z,19.63
2022-12-06T08:06:50.620Z,20.20
2022-12-06T08:09:18.508Z,20.30
2022-12-06T08:11:46.171Z,19.20
2022-12-06T08:14:14.488Z,21.37
2022-12-06T08:16:43.168Z,20.40
2022-12-06T08:19:10.695Z,21.57
2022-12-06T08:21:38.104Z,21.33
2022-12-06T08:24:06.318Z,21.10
2022-12-06T08:26:33.793Z,20.93
2022-12-06T08:29:02.428Z,22.03
2022-12-06T08:31:31.355Z,21.93
2022-12-06T08:33:59.175Z,30.73
2022-12-06T08:36:27.817Z,25.77
2022-12-06T08:38:56.452Z,22.07
2022-12-06T08:41:42.744Z,23.20
2022-12-06T08:44:15.733Z,22.10
2022-12-06T08:46:43.533Z,21.40
2022-12-06T08:49:13.450Z,22.20
2022-12-06T08:51:40.957Z,20.73
2022-12-06T08:54:11.528Z,19.17
2022-12-06T08:56:42.305Z,18.03
2022-12-06T08:59:10.216Z,18.40
2022-12-06T09:01:38.748Z,18.60
2022-12-06T09:04:11.977Z,18.67
2022-12-06T09:06:44.974Z,14.93
2022-12-06T09:09:14.591Z,17.13
2022-12-06T09:11:42.542Z,17.40
2022-12-06T09:14:21.139Z,19.43
2022-12-06T09:16:51.426Z,18.03
2022-12-06T09:19:19.777Z,19.07
2022-12-06T09:21:47.438Z,18.63
2022-12-06T10:04:07.329Z,17.37
2022-12-06T10:07:33.761Z,17.57
2022-12-06T10:10:10.850Z,18.67
2022-12-06T10:13:02.546Z,18.47
2022-12-06T10:15:30.395Z,17.80
2022-12-06T10:18:06.438Z,15.87
2022-12-06T10:20:46.645Z,16.30
2022-12-06T10:23:34.660Z,16.30
2022-12-06T10:26:42.687Z,14.47
2022-12-06T10:29:46.537Z,13.10
2022-12-06T10:32:34.458Z,15.17
2022-12-06T10:35:35.081Z,13.63
2022-12-06T10:38:25.088Z,12.90
2022-12-06T10:41:23.030Z,11.27
2022-12-06T10:43:58.585Z,12.00
2022-12-06T10:47:00.808Z,12.63
2022-12-06T10:49:51.884Z,12.47
2022-12-06T10:52:57.268Z,12.43
2022-12-06T10:55:56.876Z,12.17
2022-12-06T10:58:54.271Z,12.47
2022-12-06T11:01:33.823Z,13.73
2022-12-06T11:04:31.580Z,12.87
2022-12-06T11:07:27.136Z,11.27
2022-12-06T11:09:57.274Z,12.10
2022-12-06T11:12:32.028Z,11.53
2022-12-06T11:15:06.661Z,11.77
2022-12-06T11:17:42.591Z,11.60
2022-12-06T11:20:29.746Z,11.17
2022-12-06T11:23:30.266Z,12.37
2022-12-06T11:26:15.408Z,13.37
2022-12-06T11:28:55.582Z,13.40
2022-12-06T11:31:47.326Z,12.67
2022-12-06T11:34:23.763Z,13.00
2022-12-06T11:36:59.618Z,12.17
2022-12-06T11:39:29.933Z,11.90
2022-12-06T11:42:02.500Z,12.60
2022-12-06T11:44:49.753Z,13.27
2022-12-06T11:47:22.050Z,15.07
2022-12-06T11:49:56.365Z,17.03
2022-12-06T11:52:39.316Z,13.73
2022-12-06T11:55:21.704Z,13.07
2022-12-06T11:58:01.465Z,14.03
2022-12-06T12:00:31.183Z,15.27
2022-12-06T12:02:59.448Z,13.27
2022-12-06T12:05:38.782Z,14.67
2022-12-06T12:08:17.998Z,11.50
2022-12-06T12:11:00.494Z,13.27
2022-12-06T12:13:44.217Z,13.37
2022-12-06T12:16:18.584Z,13.57
2022-12-06T12:19:32.090Z,13.03
2022-12-06T12:22:13.211Z,13.03
2022-12-06T12:27:39.523Z,12.50
2022-12-06T12:30:22.032Z,13.90
2022-12-06T12:33:08.058Z,14.03
2022-12-06T12:35:39.982Z,16.07
2022-12-06T12:38:20.973Z,13.93
2022-12-06T12:40:57.428Z,15.67
2022-12-06T12:43:34.397Z,14.50
2022-12-06T12:46:15.819Z,14.30
2022-12-06T12:48:46.599Z,14.83
2022-12-06T12:51:47.839Z,13.60
2022-12-06T12:54:34.345Z,14.80
2022-12-06T12:57:13.081Z,17.10
2022-12-06T12:59:42.795Z,16.63
2022-12-06T13:02:31.605Z,14.83
2022-12-06T13:05:32.569Z,14.67
2022-12-06T13:08:30.416Z,16.00
2022-12-06T13:11:01.901Z,13.63
2022-12-06T13:13:41.416Z,13.93
2022-12-06T13:16:21.751Z,14.27
2022-12-06T13:18:54.710Z,13.10
2022-12-06T13:21:35.557Z,13.23
2022-12-06T13:24:25.860Z,13.27
2022-12-06T13:27:01.591Z,12.50
2022-12-06T13:30:06.973Z,12.77
2022-12-06T13:32:43.678Z,13.90
2022-12-06T13:35:30.158Z,14.17
2022-12-06T13:38:01.757Z,13.70
2022-12-06T13:41:13.270Z,13.40
2022-12-06T13:43:40.640Z,14.97
2022-12-06T13:46:10.640Z,14.00
2022-12-06T13:49:01.474Z,14.87
2022-12-06T13:51:34.656Z,14.33
2022-12-06T13:54:06.547Z,15.20
2022-12-06T13:56:34.054Z,14.73
2022-12-06T13:59:37.453Z,14.73
2022-12-06T14:02:44.981Z,15.27
2022-12-06T14:09:11.435Z,16.20
2022-12-06T14:11:40.217Z,15.90
2022-12-06T14:14:30.877Z,16.60
2022-12-06T14:17:52.588Z,17.27
2022-12-06T14:20:32.164Z,18.53
2022-12-06T14:22:59.993Z,18.20
2022-12-06T14:25:31.696Z,18.97
2022-12-06T14:28:12.725Z,18.67
2022-12-06T14:30:40.839Z,21.00
2022-12-06T14:33:23.935Z,20.33
2022-12-06T14:35:54.288Z,17.23
2022-12-06T14:38:31.738Z,20.50
2022-12-06T14:41:18.508Z,18.23
2022-12-06T14:43:49.100Z,18.77
2022-12-06T14:46:18.404Z,18.30
2022-12-06T14:49:05.037Z,18.80
2022-12-06T14:51:40.999Z,18.87
2022-12-06T14:54:44.724Z,18.27
2022-12-06T14:57:39.091Z,18.83
2022-12-06T15:00:25.314Z,19.13
2022-12-06T15:03:05.675Z,19.07
2022-12-06T15:05:42.153Z,18.70
2022-12-06T15:08:27.907Z,19.17
2022-12-06T15:11:04.144Z,19.20
2022-12-06T15:13:32.006Z,19.83
2022-12-06T15:16:20.472Z,19.00
2022-12-06T15:19:00.763Z,22.90
2022-12-06T15:21:29.608Z,20.83
2022-12-06T15:23:59.819Z,21.47
2022-12-06T15:26:47.422Z,20.80
2022-12-06T15:29:35.782Z,21.83
2022-12-06T15:32:03.531Z,24.37
2022-12-06T15:34:36.716Z,21.20
2022-12-06T15:37:37.045Z,21.13
2022-12-06T15:39:51.873Z,22.43
2022-12-06T15:42:23.143Z,20.70
2022-12-06T15:44:51.660Z,22.47
2022-12-06T15:47:20.223Z,24.60
2022-12-06T15:49:50.992Z,26.17
2022-12-06T15:52:23.549Z,21.77
2022-12-06T15:54:55.214Z,18.87
2022-12-06T15:57:23.877Z,32.83
2022-12-06T15:59:51.383Z,44.57
2022-12-06T16:02:21.781Z,31.87
2022-12-06T16:04:51.016Z,34.30
2022-12-06T16:07:19.379Z,33.73
2022-12-06T16:09:48.198Z,36.07
2022-12-06T16:12:18.518Z,47.87
2022-12-06T16:14:47.075Z,95.63
2022-12-06T16:17:14.629Z,151.33
2022-12-06T16:20:02.205Z,90.77
2022-12-06T16:22:49.360Z,57.23
2022-12-06T16:25:17.488Z,58.03
2022-12-06T16:27:46.330Z,52.33
2022-12-06T16:30:14.541Z,121.27
2022-12-06T16:32:44.228Z,63.50
2022-12-06T16:35:11.855Z,45.50
2022-12-06T16:37:39.348Z,43.13
2022-12-06T16:40:09.319Z,37.73
2022-12-06T16:42:37.471Z,38.80
2022-12-06T16:45:05.471Z,44.83
2022-12-06T16:47:32.984Z,37.80
2022-12-06T16:50:01.658Z,34.30
2022-12-06T16:52:31.381Z,36.77
2022-12-06T16:55:06.528Z,38.57
2022-12-06T16:57:35.435Z,42.57
2022-12-06T17:00:05.447Z,43.87
2022-12-06T17:02:34.153Z,60.03
2022-12-06T17:05:08.435Z,61.57
2022-12-06T17:07:40.191Z,60.43
2022-12-06T17:10:09.902Z,82.83
2022-12-06T17:12:37.993Z,76.73
2022-12-06T17:15:07.697Z,48.33
2022-12-06T17:17:35.260Z,43.20
2022-12-06T17:20:03.115Z,43.87
2022-12-06T17:22:31.632Z,54.03
2022-12-06T17:25:01.045Z,66.80
2022-12-06T17:27:30.235Z,56.20
2022-12-06T17:29:57.956Z,54.80
2022-12-06T17:32:27.450Z,78.83
2022-12-06T17:34:58.639Z,55.40
2022-12-06T17:37:26.266Z,45.70
2022-12-06T17:39:55.476Z,39.57
2022-12-06T17:42:42.204Z,29.07
2022-12-06T17:45:12.815Z,24.20
2022-12-06T17:47:40.334Z,27.70
2022-12-06T17:50:10.282Z,30.30
2022-12-06T17:52:40.507Z,29.43
2022-12-06T17:55:09.603Z,25.17
2022-12-06T17:57:37.253Z,24.33
2022-12-06T18:00:06.683Z,23.50
2022-12-06T18:02:38.014Z,25.30
2022-12-06T18:05:06.117Z,24.97
2022-12-06T18:07:36.440Z,24.93
2022-12-06T18:10:06.076Z,24.87
2022-12-06T18:12:35.049Z,24.70
2022-12-06T18:15:04.935Z,25.70
2022-12-06T18:17:32.698Z,29.73
2022-12-06T18:20:01.194Z,29.83
2022-12-06T18:22:30.573Z,33.63
2022-12-06T18:24:59.900Z,37.90
2022-12-06T18:27:30.800Z,36.57
2022-12-06T18:30:01.359Z,40.97
2022-12-06T18:32:45.514Z,41.80
2022-12-06T18:35:13.666Z,46.07
2022-12-06T18:37:42.872Z,62.17
2022-12-06T18:40:12.097Z,51.13
2022-12-06T18:43:03.286Z,59.17
2022-12-06T18:45:35.364Z,64.53
2022-12-06T18:48:24.136Z,66.90
2022-12-06T18:50:54.357Z,67.83
2022-12-06T18:53:24.482Z,73.67
2022-12-06T18:55:53.139Z,70.50
2022-12-06T18:58:20.812Z,67.47
2022-12-06T19:00:49.668Z,62.23
2022-12-06T19:03:17.803Z,43.47
2022-12-06T19:06:02.371Z,44.17
2022-12-06T19:08:35.153Z,39.20
2022-12-06T19:11:26.575Z,41.70
2022-12-06T19:13:58.162Z,39.73
2022-12-06T19:16:42.498Z,36.47
2022-12-06T19:19:16.864Z,36.70
2022-12-06T19:21:47.461Z,34.83
2022-12-06T19:24:18.821Z,35.13
2022-12-06T19:26:49.007Z,32.60
2022-12-06T19:29:16.979Z,29.87
2022-12-06T19:31:47.981Z,26.63
2022-12-06T19:34:25.204Z,26.87
2022-12-06T19:36:55.814Z,27.53
2022-12-06T19:39:28.118Z,30.77
2022-12-06T19:42:34.303Z,26.57
2022-12-06T19:45:03.666Z,23.67
2022-12-06T19:47:32.894Z,23.20
2022-12-06T19:50:02.275Z,27.97
2022-12-06T19:52:31.089Z,30.67
2022-12-06T19:54:59.660Z,25.80
2022-12-06T19:57:28.823Z,25.07
2022-12-06T19:59:56.863Z,24.93
2022-12-06T20:02:25.053Z,25.47
2022-12-06T20:04:55.322Z,25.10
2022-12-06T20:07:27.131Z,28.60
2022-12-06T20:10:02.374Z,25.77
2022-12-06T20:12:32.306Z,25.73
2022-12-06T20:15:02.127Z,24.70
2022-12-06T20:17:33.668Z,24.83
2022-12-06T20:20:02.939Z,26.73
2022-12-06T20:22:31.883Z,26.77
2022-12-06T20:25:01.607Z,26.83
2022-12-06T20:27:51.889Z,26.40
2022-12-06T20:30:23.094Z,31.33
2022-12-06T20:32:54.464Z,33.83
2022-12-06T20:35:24.185Z,41.83
2022-12-06T20:37:56.601Z,50.17
2022-12-06T20:40:31.201Z,62.37
2022-12-06T20:43:03.221Z,65.10
2022-12-06T20:45:34.441Z,56.67
2022-12-06T20:48:01.978Z,57.13
2022-12-06T20:50:30.295Z,51.50
2022-12-06T20:52:58.586Z,48.80
2022-12-06T20:55:34.392Z,49.00
2022-12-06T20:58:02.913Z,47.27
2022-12-06T21:00:33.714Z,43.63
2022-12-06T21:03:01.616Z,47.30
2022-12-06T21:05:32.525Z,48.73
2022-12-06T21:08:01.419Z,59.83
2022-12-06T21:10:29.186Z,53.43
2022-12-06T21:13:00.413Z,53.70
2022-12-06T21:15:33.588Z,51.37
2022-12-06T21:18:01.501Z,50.10
2022-12-06T21:20:28.977Z,48.80
2022-12-06T21:22:59.982Z,46.20
2022-12-06T21:25:28.615Z,44.70
2022-12-06T21:27:57.429Z,45.00
2022-12-06T21:30:28.085Z,49.23
2022-12-06T21:32:56.304Z,48.27
2022-12-06T21:35:23.799Z,45.57
2022-12-06T21:37:51.312Z,45.83
2022-12-06T21:40:20.004Z,44.13
2022-12-06T21:42:47.549Z,45.83
2022-12-06T21:45:41.328Z,42.63
2022-12-06T21:48:09.597Z,40.13
2022-12-06T21:50:37.637Z,37.60
2022-12-06T21:53:05.214Z,35.50
2022-12-06T21:55:32.657Z,28.40
2022-12-06T21:58:00.074Z,31.93
2022-12-06T22:00:27.534Z,29.23
2022-12-06T22:02:55.094Z,30.63
2022-12-06T22:05:22.570Z,25.10
2022-12-06T22:07:50.139Z,26.63
2022-12-06T22:10:17.788Z,26.57
2022-12-06T22:12:48.052Z,26.10
2022-12-06T22:15:15.682Z,27.70
2022-12-06T22:17:43.143Z,25.77
2022-12-06T22:20:10.810Z,26.97
2022-12-06T22:22:38.959Z,28.53
2022-12-06T22:25:08.146Z,25.93
2022-12-06T22:27:35.583Z,24.10
2022-12-06T22:30:03.540Z,23.33
2022-12-06T22:32:34.487Z,20.20
2022-12-06T22:35:01.995Z,20.60
2022-12-06T22:37:29.450Z,21.73
2022-12-06T22:39:56.893Z,21.17
2022-12-06T22:42:24.316Z,22.43
2022-12-06T22:44:51.911Z,22.03
2022-12-06T22:47:19.376Z,21.43
2022-12-06T22:49:47.455Z,21.43
2022-12-06T22:52:14.992Z,19.50
2022-12-06T22:54:42.428Z,21.07
2022-12-06T22:57:09.938Z,18.50
2022-12-06T22:59:37.327Z,18.73
2022-12-06T23:02:04.919Z,19.00
2022-12-06T23:04:32.533Z,19.63
2022-12-06T23:07:00.802Z,19.43
2022-12-06T23:09:28.337Z,20.00
2022-12-06T23:11:55.761Z,20.50
2022-12-06T23:14:23.228Z,20.43
2022-12-06T23:16:50.726Z,19.97
2022-12-06T23:19:18.348Z,19.27
2022-12-06T23:21:46.813Z,19.20
2022-12-06T23:24:15.088Z,17.93
2022-12-06T23:26:51.877Z,18.87
2022-12-06T23:29:22.285Z,19.10
2022-12-06T23:31:49.842Z,18.43
2022-12-06T23:34:23.082Z,18.83
2022-12-06T23:36:50.727Z,15.43
2022-12-06T23:39:18.758Z,16.67
2022-12-06T23:41:46.499Z,13.30
2022-12-06T23:44:14.396Z,14.03
2022-12-06T23:46:44.119Z,12.57
2022-12-06T23:49:17.865Z,12.63
2022-12-06T23:51:47.084Z,12.87
2022-12-06T23:54:17.729Z,12.67
2022-12-06T23:56:46.386Z,14.07
2022-12-06T23:59:16.956Z,12.93
